sensor_id;sensor_type;location;lat;lon;timestamp;P1;durP1;ratioP1;P2;durP2;ratioP2
4704;SDS011;2366;51.332;6.610;2024-03-25T00:00:58;19.47;;;4.70;;
4704;SDS011;2366;51.332;6.610;2024-03-25T00:03:24;15.27;;;4.77;;
4704;SDS011;2366;51.332;6.610;2024-03-25T00:05:49;24.13;;;5.70;;
4704;SDS011;2366;51.332;6.610;2024-03-25T00:08:15;27.07;;;5.63;;
4704;SDS011;2366;51.332;6.610;2024-03-25T00:10:40;21.40;;;4.40;;
4704;SDS011;2366;51.332;6.610;2024-03-25T00:13:05;22.27;;;5.93;;
4704;SDS011;2366;51.332;6.610;2024-03-25T00:15:31;21.93;;;4.97;;
4704;SDS011;2366;51.332;6.610;2024-03-25T00:17:56;21.40;;;4.43;;
4704;SDS011;2366;51.332;6.610;2024-03-25T00:20:22;30.20;;;5.20;;
4704;SDS011;2366;51.332;6.610;2024-03-25T00:22:47;28.47;;;5.10;;
4704;SDS011;2366;51.332;6.610;2024-03-25T00:25:12;21.83;;;5.50;;
4704;SDS011;2366;51.332;6.610;2024-03-25T00:27:38;25.63;;;4.90;;
4704;SDS011;2366;51.332;6.610;2024-03-25T00:30:03;21.20;;;7.10;;
4704;SDS011;2366;51.332;6.610;2024-03-25T00:32:30;28.60;;;6.13;;
4704;SDS011;2366;51.332;6.610;2024-03-25T00:34:55;22.90;;;5.03;;
4704;SDS011;2366;51.332;6.610;2024-03-25T00:37:20;18.20;;;4.83;;
4704;SDS011;2366;51.332;6.610;2024-03-25T00:39:46;20.57;;;5.23;;
4704;SDS011;2366;51.332;6.610;2024-03-25T00:42:12;22.67;;;5.13;;
4704;SDS011;2366;51.332;6.610;2024-03-25T00:44:37;17.20;;;5.70;;
4704;SDS011;2366;51.332;6.610;2024-03-25T00:47:03;17.73;;;5.57;;
4704;SDS011;2366;51.332;6.610;2024-03-25T00:49:28;25.87;;;5.80;;
4704;SDS011;2366;51.332;6.610;2024-03-25T00:51:54;23.97;;;5.33;;
4704;SDS011;2366;51.332;6.610;2024-03-25T00:54:19;19.30;;;5.97;;
4704;SDS011;2366;51.332;6.610;2024-03-25T00:56:45;20.77;;;5.80;;
4704;SDS011;2366;51.332;6.610;2024-03-25T00:59:11;28.58;;;6.55;;
4704;SDS011;2366;51.332;6.610;2024-03-25T01:01:37;26.10;;;7.70;;
4704;SDS011;2366;51.332;6.610;2024-03-25T01:04:02;29.00;;;6.30;;
4704;SDS011;2366;51.332;6.610;2024-03-25T01:06:28;22.40;;;6.03;;
4704;SDS011;2366;51.332;6.610;2024-03-25T01:08:53;25.20;;;6.37;;
4704;SDS011;2366;51.332;6.610;2024-03-25T01:11:19;27.00;;;6.97;;
4704;SDS011;2366;51.332;6.610;2024-03-25T01:13:44;25.10;;;6.50;;
4704;SDS011;2366;51.332;6.610;2024-03-25T01:16:09;29.87;;;5.87;;
4704;SDS011;2366;51.332;6.610;2024-03-25T01:18:35;23.27;;;6.47;;
4704;SDS011;2366;51.332;6.610;2024-03-25T01:21:01;24.93;;;6.33;;
4704;SDS011;2366;51.332;6.610;2024-03-25T01:23:26;21.83;;;6.80;;
4704;SDS011;2366;51.332;6.610;2024-03-25T01:25:52;31.90;;;7.10;;
4704;SDS011;2366;51.332;6.610;2024-03-25T01:28:17;33.97;;;8.07;;
4704;SDS011;2366;51.332;6.610;2024-03-25T01:30:42;26.40;;;7.00;;
4704;SDS011;2366;51.332;6.610;2024-03-25T01:33:08;29.80;;;7.70;;
4704;SDS011;2366;51.332;6.610;2024-03-25T01:35:34;25.00;;;7.13;;
4704;SDS011;2366;51.332;6.610;2024-03-25T01:38:00;39.85;;;9.48;;
4704;SDS011;2366;51.332;6.610;2024-03-25T01:40:25;22.50;;;5.70;;
4704;SDS011;2366;51.332;6.610;2024-03-25T01:43:01;26.23;;;6.87;;
4704;SDS011;2366;51.332;6.610;2024-03-25T01:45:28;31.08;;;8.93;;
4704;SDS011;2366;51.332;6.610;2024-03-25T01:47:56;17.25;;;6.68;;
4704;SDS011;2366;51.332;6.610;2024-03-25T01:50:23;26.13;;;8.00;;
4704;SDS011;2366;51.332;6.610;2024-03-25T01:52:49;29.13;;;7.85;;
4704;SDS011;2366;51.332;6.610;2024-03-25T01:55:18;26.83;;;8.07;;
4704;SDS011;2366;51.332;6.610;2024-03-25T01:57:46;26.38;;;8.52;;
4704;SDS011;2366;51.332;6.610;2024-03-25T02:00:13;34.90;;;9.15;;
4704;SDS011;2366;51.332;6.610;2024-03-25T02:02:41;39.78;;;8.57;;
4704;SDS011;2366;51.332;6.610;2024-03-25T02:05:09;25.40;;;8.23;;
4704;SDS011;2366;51.332;6.610;2024-03-25T02:07:36;25.35;;;7.45;;
4704;SDS011;2366;51.332;6.610;2024-03-25T02:10:02;44.80;;;9.67;;
4704;SDS011;2366;51.332;6.610;2024-03-25T02:12:29;22.90;;;8.15;;
4704;SDS011;2366;51.332;6.610;2024-03-25T02:14:56;32.65;;;8.98;;
4704;SDS011;2366;51.332;6.610;2024-03-25T02:17:21;29.33;;;9.60;;
4704;SDS011;2366;51.332;6.610;2024-03-25T02:19:46;31.80;;;9.97;;
4704;SDS011;2366;51.332;6.610;2024-03-25T02:22:12;32.63;;;10.40;;
4704;SDS011;2366;51.332;6.610;2024-03-25T02:24:37;29.30;;;8.60;;
4704;SDS011;2366;51.332;6.610;2024-03-25T02:27:04;36.90;;;9.60;;
4704;SDS011;2366;51.332;6.610;2024-03-25T02:29:33;30.70;;;8.50;;
4704;SDS011;2366;51.332;6.610;2024-03-25T02:31:59;32.25;;;8.30;;
4704;SDS011;2366;51.332;6.610;2024-03-25T02:34:24;40.53;;;10.37;;
4704;SDS011;2366;51.332;6.610;2024-03-25T02:36:50;34.10;;;10.50;;
4704;SDS011;2366;51.332;6.610;2024-03-25T02:39:16;27.30;;;8.73;;
4704;SDS011;2366;51.332;6.610;2024-03-25T02:41:42;35.05;;;9.00;;
4704;SDS011;2366;51.332;6.610;2024-03-25T02:44:08;32.63;;;9.20;;
4704;SDS011;2366;51.332;6.610;2024-03-25T02:46:33;36.07;;;9.80;;
4704;SDS011;2366;51.332;6.610;2024-03-25T02:48:59;35.40;;;9.20;;
4704;SDS011;2366;51.332;6.610;2024-03-25T02:51:25;25.27;;;7.33;;
4704;SDS011;2366;51.332;6.610;2024-03-25T02:53:50;29.13;;;8.60;;
4704;SDS011;2366;51.332;6.610;2024-03-25T02:56:16;43.73;;;9.23;;
4704;SDS011;2366;51.332;6.610;2024-03-25T02:58:41;30.63;;;8.23;;
4704;SDS011;2366;51.332;6.610;2024-03-25T03:01:07;44.57;;;10.07;;
4704;SDS011;2366;51.332;6.610;2024-03-25T03:03:32;50.37;;;9.50;;
4704;SDS011;2366;51.332;6.610;2024-03-25T03:05:57;21.17;;;7.60;;
4704;SDS011;2366;51.332;6.610;2024-03-25T03:08:23;25.53;;;8.10;;
4704;SDS011;2366;51.332;6.610;2024-03-25T03:10:48;21.50;;;7.37;;
4704;SDS011;2366;51.332;6.610;2024-03-25T03:13:14;26.70;;;8.90;;
4704;SDS011;2366;51.332;6.610;2024-03-25T03:15:43;25.20;;;9.87;;
4704;SDS011;2366;51.332;6.610;2024-03-25T03:18:11;34.65;;;9.13;;
4704;SDS011;2366;51.332;6.610;2024-03-25T03:20:37;34.50;;;10.67;;
4704;SDS011;2366;51.332;6.610;2024-03-25T03:23:02;46.80;;;7.93;;
4704;SDS011;2366;51.332;6.610;2024-03-25T03:25:27;33.00;;;8.30;;
4704;SDS011;2366;51.332;6.610;2024-03-25T03:27:54;28.85;;;8.10;;
4704;SDS011;2366;51.332;6.610;2024-03-25T03:30:21;19.42;;;7.63;;
4704;SDS011;2366;51.332;6.610;2024-03-25T03:32:46;23.37;;;8.33;;
4704;SDS011;2366;51.332;6.610;2024-03-25T03:35:11;26.63;;;12.63;;
4704;SDS011;2366;51.332;6.610;2024-03-25T03:37:37;17.73;;;7.33;;
4704;SDS011;2366;51.332;6.610;2024-03-25T03:40:02;15.43;;;6.80;;
4704;SDS011;2366;51.332;6.610;2024-03-25T03:42:31;33.17;;;8.57;;
4704;SDS011;2366;51.332;6.610;2024-03-25T03:44:56;18.00;;;6.50;;
4704;SDS011;2366;51.332;6.610;2024-03-25T03:47:22;25.33;;;7.90;;
4704;SDS011;2366;51.332;6.610;2024-03-25T03:49:47;25.37;;;7.57;;
4704;SDS011;2366;51.332;6.610;2024-03-25T03:52:12;24.73;;;8.10;;
4704;SDS011;2366;51.332;6.610;2024-03-25T03:54:38;42.47;;;10.10;;
4704;SDS011;2366;51.332;6.610;2024-03-25T03:57:04;18.17;;;9.17;;
4704;SDS011;2366;51.332;6.610;2024-03-25T03:59:30;27.58;;;7.32;;
4704;SDS011;2366;51.332;6.610;2024-03-25T04:01:56;26.85;;;7.75;;
4704;SDS011;2366;51.332;6.610;2024-03-25T04:04:21;23.47;;;7.43;;
4704;SDS011;2366;51.332;6.610;2024-03-25T04:06:47;17.83;;;8.10;;
4704;SDS011;2366;51.332;6.610;2024-03-25T04:09:12;22.60;;;8.73;;
4704;SDS011;2366;51.332;6.610;2024-03-25T04:11:38;13.57;;;6.60;;
4704;SDS011;2366;51.332;6.610;2024-03-25T04:14:04;34.70;;;9.20;;
4704;SDS011;2366;51.332;6.610;2024-03-25T04:16:30;21.17;;;7.03;;
4704;SDS011;2366;51.332;6.610;2024-03-25T04:18:56;21.03;;;7.43;;
4704;SDS011;2366;51.332;6.610;2024-03-25T04:21:22;17.33;;;8.10;;
4704;SDS011;2366;51.332;6.610;2024-03-25T04:23:48;32.10;;;10.17;;
4704;SDS011;2366;51.332;6.610;2024-03-25T04:26:14;20.00;;;7.20;;
4704;SDS011;2366;51.332;6.610;2024-03-25T04:28:40;30.23;;;8.43;;
4704;SDS011;2366;51.332;6.610;2024-03-25T04:31:07;12.70;;;6.20;;
4704;SDS011;2366;51.332;6.610;2024-03-25T04:33:33;21.35;;;7.50;;
4704;SDS011;2366;51.332;6.610;2024-03-25T04:35:58;23.67;;;7.47;;
4704;SDS011;2366;51.332;6.610;2024-03-25T04:38:23;25.53;;;8.00;;
4704;SDS011;2366;51.332;6.610;2024-03-25T04:40:49;20.03;;;7.60;;
4704;SDS011;2366;51.332;6.610;2024-03-25T04:43:15;42.13;;;8.67;;
4704;SDS011;2366;51.332;6.610;2024-03-25T04:45:41;28.53;;;9.93;;
4704;SDS011;2366;51.332;6.610;2024-03-25T04:48:06;28.73;;;9.37;;
4704;SDS011;2366;51.332;6.610;2024-03-25T04:50:35;23.13;;;8.48;;
4704;SDS011;2366;51.332;6.610;2024-03-25T04:53:00;27.90;;;8.60;;
4704;SDS011;2366;51.332;6.610;2024-03-25T04:55:26;41.10;;;9.00;;
4704;SDS011;2366;51.332;6.610;2024-03-25T04:57:51;26.03;;;7.60;;
4704;SDS011;2366;51.332;6.610;2024-03-25T05:00:17;18.13;;;8.67;;
4704;SDS011;2366;51.332;6.610;2024-03-25T05:02:43;21.52;;;6.97;;
4704;SDS011;2366;51.332;6.610;2024-03-25T05:05:08;18.53;;;8.00;;
4704;SDS011;2366;51.332;6.610;2024-03-25T05:07:34;20.00;;;7.75;;
4704;SDS011;2366;51.332;6.610;2024-03-25T05:10:00;20.98;;;7.72;;
4704;SDS011;2366;51.332;6.610;2024-03-25T05:12:26;26.47;;;8.03;;
4704;SDS011;2366;51.332;6.610;2024-03-25T05:14:56;21.90;;;8.60;;
4704;SDS011;2366;51.332;6.610;2024-03-25T05:17:21;25.73;;;7.88;;
4704;SDS011;2366;51.332;6.610;2024-03-25T05:19:47;28.80;;;8.43;;
4704;SDS011;2366;51.332;6.610;2024-03-25T05:22:13;27.23;;;8.43;;
4704;SDS011;2366;51.332;6.610;2024-03-25T05:24:38;29.90;;;8.80;;
4704;SDS011;2366;51.332;6.610;2024-03-25T05:27:03;26.80;;;8.23;;
4704;SDS011;2366;51.332;6.610;2024-03-25T05:29:29;19.20;;;7.07;;
4704;SDS011;2366;51.332;6.610;2024-03-25T05:31:55;23.43;;;10.37;;
4704;SDS011;2366;51.332;6.610;2024-03-25T05:34:25;17.88;;;7.78;;
4704;SDS011;2366;51.332;6.610;2024-03-25T05:36:52;19.48;;;8.85;;
4704;SDS011;2366;51.332;6.610;2024-03-25T05:39:17;27.47;;;8.37;;
4704;SDS011;2366;51.332;6.610;2024-03-25T05:41:43;34.63;;;9.63;;
4704;SDS011;2366;51.332;6.610;2024-03-25T05:44:09;26.90;;;9.00;;
4704;SDS011;2366;51.332;6.610;2024-03-25T05:46:34;27.93;;;10.40;;
4704;SDS011;2366;51.332;6.610;2024-03-25T05:49:03;33.27;;;11.43;;
4704;SDS011;2366;51.332;6.610;2024-03-25T05:51:29;27.92;;;9.88;;
4704;SDS011;2366;51.332;6.610;2024-03-25T05:53:55;24.52;;;8.85;;
4704;SDS011;2366;51.332;6.610;2024-03-25T05:56:21;29.60;;;11.17;;
4704;SDS011;2366;51.332;6.610;2024-03-25T05:58:46;24.63;;;9.17;;
4704;SDS011;2366;51.332;6.610;2024-03-25T06:01:12;19.63;;;8.70;;
4704;SDS011;2366;51.332;6.610;2024-03-25T06:03:37;24.00;;;9.90;;
4704;SDS011;2366;51.332;6.610;2024-03-25T06:06:03;19.63;;;8.63;;
4704;SDS011;2366;51.332;6.610;2024-03-25T06:08:28;26.23;;;9.10;;
4704;SDS011;2366;51.332;6.610;2024-03-25T06:10:54;31.73;;;11.73;;
4704;SDS011;2366;51.332;6.610;2024-03-25T06:13:20;23.10;;;10.33;;
4704;SDS011;2366;51.332;6.610;2024-03-25T06:15:46;27.23;;;11.40;;
4704;SDS011;2366;51.332;6.610;2024-03-25T06:18:11;19.33;;;10.02;;
4704;SDS011;2366;51.332;6.610;2024-03-25T06:20:37;25.33;;;9.70;;
4704;SDS011;2366;51.332;6.610;2024-03-25T06:23:02;24.20;;;9.00;;
4704;SDS011;2366;51.332;6.610;2024-03-25T06:25:28;21.20;;;8.77;;
4704;SDS011;2366;51.332;6.610;2024-03-25T06:27:54;20.70;;;8.80;;
4704;SDS011;2366;51.332;6.610;2024-03-25T06:30:19;20.13;;;8.93;;
4704;SDS011;2366;51.332;6.610;2024-03-25T06:33:04;27.02;;;9.15;;
4704;SDS011;2366;51.332;6.610;2024-03-25T06:35:47;17.63;;;8.00;;
4704;SDS011;2366;51.332;6.610;2024-03-25T06:38:14;25.77;;;8.40;;
4704;SDS011;2366;51.332;6.610;2024-03-25T06:40:40;19.10;;;8.30;;
4704;SDS011;2366;51.332;6.610;2024-03-25T06:43:05;21.00;;;8.10;;
4704;SDS011;2366;51.332;6.610;2024-03-25T06:45:31;17.10;;;7.50;;
4704;SDS011;2366;51.332;6.610;2024-03-25T06:47:57;21.67;;;8.10;;
4704;SDS011;2366;51.332;6.610;2024-03-25T06:50:23;23.07;;;7.80;;
4704;SDS011;2366;51.332;6.610;2024-03-25T06:52:48;18.83;;;7.45;;
4704;SDS011;2366;51.332;6.610;2024-03-25T06:55:14;18.17;;;7.37;;
4704;SDS011;2366;51.332;6.610;2024-03-25T06:57:40;19.73;;;7.20;;
4704;SDS011;2366;51.332;6.610;2024-03-25T07:00:05;19.20;;;6.20;;
4704;SDS011;2366;51.332;6.610;2024-03-25T07:02:35;20.50;;;6.72;;
4704;SDS011;2366;51.332;6.610;2024-03-25T07:05:00;13.80;;;6.33;;
4704;SDS011;2366;51.332;6.610;2024-03-25T07:07:26;16.60;;;6.10;;
4704;SDS011;2366;51.332;6.610;2024-03-25T07:09:51;14.43;;;6.30;;
4704;SDS011;2366;51.332;6.610;2024-03-25T07:12:16;16.73;;;6.67;;
4704;SDS011;2366;51.332;6.610;2024-03-25T07:14:42;14.37;;;5.80;;
4704;SDS011;2366;51.332;6.610;2024-03-25T07:17:07;13.37;;;5.93;;
4704;SDS011;2366;51.332;6.610;2024-03-25T07:19:32;11.80;;;5.50;;
4704;SDS011;2366;51.332;6.610;2024-03-25T07:21:58;18.00;;;5.53;;
4704;SDS011;2366;51.332;6.610;2024-03-25T07:24:23;14.87;;;5.83;;
4704;SDS011;2366;51.332;6.610;2024-03-25T07:26:48;21.33;;;7.57;;
4704;SDS011;2366;51.332;6.610;2024-03-25T07:29:15;17.10;;;6.33;;
4704;SDS011;2366;51.332;6.610;2024-03-25T07:31:40;17.27;;;6.50;;
4704;SDS011;2366;51.332;6.610;2024-03-25T07:34:06;18.80;;;5.57;;
4704;SDS011;2366;51.332;6.610;2024-03-25T07:36:31;21.03;;;5.47;;
4704;SDS011;2366;51.332;6.610;2024-03-25T07:39:00;11.90;;;5.27;;
4704;SDS011;2366;51.332;6.610;2024-03-25T07:41:25;13.13;;;5.67;;
4704;SDS011;2366;51.332;6.610;2024-03-25T07:43:50;10.73;;;4.70;;
4704;SDS011;2366;51.332;6.610;2024-03-25T07:46:16;14.47;;;4.87;;
4704;SDS011;2366;51.332;6.610;2024-03-25T07:48:41;10.00;;;5.13;;
4704;SDS011;2366;51.332;6.610;2024-03-25T07:51:07;11.03;;;5.43;;
4704;SDS011;2366;51.332;6.610;2024-03-25T07:53:32;14.30;;;5.43;;
4704;SDS011;2366;51.332;6.610;2024-03-25T07:55:58;13.27;;;5.50;;
4704;SDS011;2366;51.332;6.610;2024-03-25T07:58:23;13.50;;;5.50;;
4704;SDS011;2366;51.332;6.610;2024-03-25T08:00:49;18.40;;;5.13;;
4704;SDS011;2366;51.332;6.610;2024-03-25T08:03:14;20.37;;;6.13;;
4704;SDS011;2366;51.332;6.610;2024-03-25T08:05:40;13.30;;;6.40;;
4704;SDS011;2366;51.332;6.610;2024-03-25T08:08:05;14.20;;;5.80;;
4704;SDS011;2366;51.332;6.610;2024-03-25T08:10:31;15.30;;;5.43;;
4704;SDS011;2366;51.332;6.610;2024-03-25T08:12:56;13.80;;;5.80;;
4704;SDS011;2366;51.332;6.610;2024-03-25T08:15:22;9.30;;;4.93;;
4704;SDS011;2366;51.332;6.610;2024-03-25T08:17:47;16.17;;;4.97;;
4704;SDS011;2366;51.332;6.610;2024-03-25T08:20:12;13.10;;;4.77;;
4704;SDS011;2366;51.332;6.610;2024-03-25T08:22:38;16.73;;;5.13;;
4704;SDS011;2366;51.332;6.610;2024-03-25T08:25:03;12.20;;;5.00;;
4704;SDS011;2366;51.332;6.610;2024-03-25T08:27:29;11.07;;;4.37;;
4704;SDS011;2366;51.332;6.610;2024-03-25T08:29:55;14.00;;;5.50;;
4704;SDS011;2366;51.332;6.610;2024-03-25T08:32:20;13.60;;;5.10;;
4704;SDS011;2366;51.332;6.610;2024-03-25T08:34:45;13.03;;;4.60;;
4704;SDS011;2366;51.332;6.610;2024-03-25T08:37:11;11.00;;;4.70;;
4704;SDS011;2366;51.332;6.610;2024-03-25T08:39:37;15.27;;;5.40;;
4704;SDS011;2366;51.332;6.610;2024-03-25T08:42:02;11.63;;;4.70;;
4704;SDS011;2366;51.332;6.610;2024-03-25T08:44:28;8.27;;;4.40;;
4704;SDS011;2366;51.332;6.610;2024-03-25T08:46:55;11.43;;;4.83;;
4704;SDS011;2366;51.332;6.610;2024-03-25T08:49:29;8.27;;;4.67;;
4704;SDS011;2366;51.332;6.610;2024-03-25T08:51:54;13.13;;;5.00;;
4704;SDS011;2366;51.332;6.610;2024-03-25T08:54:20;12.30;;;5.57;;
4704;SDS011;2366;51.332;6.610;2024-03-25T08:56:45;7.80;;;5.60;;
4704;SDS011;2366;51.332;6.610;2024-03-25T08:59:11;11.23;;;5.10;;
4704;SDS011;2366;51.332;6.610;2024-03-25T09:01:36;11.90;;;5.43;;
4704;SDS011;2366;51.332;6.610;2024-03-25T09:04:02;13.40;;;7.07;;
4704;SDS011;2366;51.332;6.610;2024-03-25T09:06:29;17.20;;;6.33;;
4704;SDS011;2366;51.332;6.610;2024-03-25T09:08:54;14.70;;;6.50;;
4704;SDS011;2366;51.332;6.610;2024-03-25T09:11:38;16.23;;;6.60;;
4704;SDS011;2366;51.332;6.610;2024-03-25T09:14:04;13.87;;;5.90;;
4704;SDS011;2366;51.332;6.610;2024-03-25T09:16:31;19.73;;;6.30;;
4704;SDS011;2366;51.332;6.610;2024-03-25T09:18:56;14.80;;;5.97;;
4704;SDS011;2366;51.332;6.610;2024-03-25T09:21:22;10.07;;;5.53;;
4704;SDS011;2366;51.332;6.610;2024-03-25T09:23:49;15.43;;;6.27;;
4704;SDS011;2366;51.332;6.610;2024-03-25T09:26:14;13.77;;;6.43;;
4704;SDS011;2366;51.332;6.610;2024-03-25T09:28:40;11.23;;;7.43;;
4704;SDS011;2366;51.332;6.610;2024-03-25T09:31:05;20.30;;;9.37;;
4704;SDS011;2366;51.332;6.610;2024-03-25T09:33:31;17.40;;;7.40;;
4704;SDS011;2366;51.332;6.610;2024-03-25T09:35:56;13.23;;;6.60;;
4704;SDS011;2366;51.332;6.610;2024-03-25T09:38:22;15.40;;;7.27;;
4704;SDS011;2366;51.332;6.610;2024-03-25T09:40:47;16.03;;;6.93;;
4704;SDS011;2366;51.332;6.610;2024-03-25T09:43:13;18.93;;;9.37;;
4704;SDS011;2366;51.332;6.610;2024-03-25T09:45:47;17.00;;;7.70;;
4704;SDS011;2366;51.332;6.610;2024-03-25T09:48:14;18.20;;;7.43;;
4704;SDS011;2366;51.332;6.610;2024-03-25T09:50:42;24.23;;;7.73;;
4704;SDS011;2366;51.332;6.610;2024-03-25T09:53:08;14.17;;;6.60;;
4704;SDS011;2366;51.332;6.610;2024-03-25T09:55:34;19.60;;;7.37;;
4704;SDS011;2366;51.332;6.610;2024-03-25T09:57:59;19.03;;;8.10;;
4704;SDS011;2366;51.332;6.610;2024-03-25T10:00:26;22.57;;;11.70;;
4704;SDS011;2366;51.332;6.610;2024-03-25T10:02:51;25.47;;;8.83;;
4704;SDS011;2366;51.332;6.610;2024-03-25T10:05:16;28.83;;;8.70;;
4704;SDS011;2366;51.332;6.610;2024-03-25T10:07:42;16.47;;;6.57;;
4704;SDS011;2366;51.332;6.610;2024-03-25T10:10:08;17.87;;;8.20;;
4704;SDS011;2366;51.332;6.610;2024-03-25T10:12:35;16.47;;;6.93;;
4704;SDS011;2366;51.332;6.610;2024-03-25T10:15:01;18.47;;;7.70;;
4704;SDS011;2366;51.332;6.610;2024-03-25T10:17:26;17.87;;;7.90;;
4704;SDS011;2366;51.332;6.610;2024-03-25T10:19:54;20.83;;;7.77;;
4704;SDS011;2366;51.332;6.610;2024-03-25T10:22:20;15.35;;;6.22;;
4704;SDS011;2366;51.332;6.610;2024-03-25T10:24:46;16.63;;;5.97;;
4704;SDS011;2366;51.332;6.610;2024-03-25T10:27:19;20.60;;;8.40;;
4704;SDS011;2366;51.332;6.610;2024-03-25T10:29:45;15.00;;;6.20;;
4704;SDS011;2366;51.332;6.610;2024-03-25T10:32:12;15.25;;;6.28;;
4704;SDS011;2366;51.332;6.610;2024-03-25T10:34:38;13.45;;;5.50;;
4704;SDS011;2366;51.332;6.610;2024-03-25T10:37:04;12.57;;;5.97;;
4704;SDS011;2366;51.332;6.610;2024-03-25T10:39:31;18.25;;;5.72;;
4704;SDS011;2366;51.332;6.610;2024-03-25T10:41:58;11.10;;;5.97;;
4704;SDS011;2366;51.332;6.610;2024-03-25T10:44:25;17.02;;;6.45;;
4704;SDS011;2366;51.332;6.610;2024-03-25T10:46:57;15.32;;;6.32;;
4704;SDS011;2366;51.332;6.610;2024-03-25T10:49:27;21.42;;;6.70;;
4704;SDS011;2366;51.332;6.610;2024-03-25T10:51:57;13.52;;;6.13;;
4704;SDS011;2366;51.332;6.610;2024-03-25T10:54:28;12.70;;;5.18;;
4704;SDS011;2366;51.332;6.610;2024-03-25T10:56:56;16.90;;;5.35;;
4704;SDS011;2366;51.332;6.610;2024-03-25T10:59:23;10.57;;;4.90;;
4704;SDS011;2366;51.332;6.610;2024-03-25T11:01:51;10.68;;;5.10;;
4704;SDS011;2366;51.332;6.610;2024-03-25T11:04:16;8.40;;;5.33;;
4704;SDS011;2366;51.332;6.610;2024-03-25T11:06:42;16.47;;;5.97;;
4704;SDS011;2366;51.332;6.610;2024-03-25T11:09:07;14.77;;;4.90;;
4704;SDS011;2366;51.332;6.610;2024-03-25T11:11:33;7.93;;;4.63;;
4704;SDS011;2366;51.332;6.610;2024-03-25T11:13:59;7.97;;;4.18;;
4704;SDS011;2366;51.332;6.610;2024-03-25T11:16:30;9.45;;;4.40;;
4704;SDS011;2366;51.332;6.610;2024-03-25T11:19:02;10.95;;;4.22;;
4704;SDS011;2366;51.332;6.610;2024-03-25T11:21:28;10.88;;;5.13;;
4704;SDS011;2366;51.332;6.610;2024-03-25T11:23:54;13.43;;;5.13;;
4704;SDS011;2366;51.332;6.610;2024-03-25T11:26:25;16.20;;;6.07;;
4704;SDS011;2366;51.332;6.610;2024-03-25T11:28:52;11.75;;;6.75;;
4704;SDS011;2366;51.332;6.610;2024-03-25T11:31:20;10.80;;;5.72;;
4704;SDS011;2366;51.332;6.610;2024-03-25T11:33:46;16.38;;;6.75;;
4704;SDS011;2366;51.332;6.610;2024-03-25T11:36:12;10.43;;;6.15;;
4704;SDS011;2366;51.332;6.610;2024-03-25T11:38:38;8.90;;;5.60;;
4704;SDS011;2366;51.332;6.610;2024-03-25T11:41:06;9.85;;;5.90;;
4704;SDS011;2366;51.332;6.610;2024-03-25T11:43:32;7.90;;;5.57;;
4704;SDS011;2366;51.332;6.610;2024-03-25T11:45:58;17.90;;;6.17;;
4704;SDS011;2366;51.332;6.610;2024-03-25T11:48:23;13.70;;;6.00;;
4704;SDS011;2366;51.332;6.610;2024-03-25T11:50:48;9.40;;;5.67;;
4704;SDS011;2366;51.332;6.610;2024-03-25T11:53:14;13.67;;;6.40;;
4704;SDS011;2366;51.332;6.610;2024-03-25T11:55:48;13.10;;;6.90;;
4704;SDS011;2366;51.332;6.610;2024-03-25T11:58:14;13.10;;;7.50;;
4704;SDS011;2366;51.332;6.610;2024-03-25T12:00:46;10.70;;;6.03;;
4704;SDS011;2366;51.332;6.610;2024-03-25T12:03:14;20.65;;;6.05;;
4704;SDS011;2366;51.332;6.610;2024-03-25T12:05:41;8.85;;;5.20;;
4704;SDS011;2366;51.332;6.610;2024-03-25T12:08:09;9.17;;;6.13;;
4704;SDS011;2366;51.332;6.610;2024-03-25T12:10:36;11.88;;;6.57;;
4704;SDS011;2366;51.332;6.610;2024-03-25T12:13:20;8.75;;;5.55;;
4704;SDS011;2366;51.332;6.610;2024-03-25T12:15:46;8.00;;;5.53;;
4704;SDS011;2366;51.332;6.610;2024-03-25T12:18:13;11.43;;;6.22;;
4704;SDS011;2366;51.332;6.610;2024-03-25T12:20:39;6.78;;;5.10;;
4704;SDS011;2366;51.332;6.610;2024-03-25T12:23:04;10.47;;;5.63;;
4704;SDS011;2366;51.332;6.610;2024-03-25T12:25:29;9.20;;;5.10;;
4704;SDS011;2366;51.332;6.610;2024-03-25T12:27:55;11.00;;;5.77;;
4704;SDS011;2366;51.332;6.610;2024-03-25T12:30:21;9.73;;;5.83;;
4704;SDS011;2366;51.332;6.610;2024-03-25T12:32:46;13.27;;;5.87;;
4704;SDS011;2366;51.332;6.610;2024-03-25T12:35:12;9.40;;;5.90;;
4704;SDS011;2366;51.332;6.610;2024-03-25T12:37:42;11.02;;;5.45;;
4704;SDS011;2366;51.332;6.610;2024-03-25T12:40:24;5.90;;;4.25;;
4704;SDS011;2366;51.332;6.610;2024-03-25T12:42:51;10.75;;;4.75;;
4704;SDS011;2366;51.332;6.610;2024-03-25T12:45:18;12.40;;;4.28;;
4704;SDS011;2366;51.332;6.610;2024-03-25T12:47:45;12.80;;;4.45;;
4704;SDS011;2366;51.332;6.610;2024-03-25T12:50:10;7.53;;;4.47;;
4704;SDS011;2366;51.332;6.610;2024-03-25T12:52:35;8.13;;;5.23;;
4704;SDS011;2366;51.332;6.610;2024-03-25T12:55:01;17.33;;;5.17;;
4704;SDS011;2366;51.332;6.610;2024-03-25T12:57:27;14.70;;;5.40;;
4704;SDS011;2366;51.332;6.610;2024-03-25T12:59:52;13.90;;;3.73;;
4704;SDS011;2366;51.332;6.610;2024-03-25T13:02:17;6.87;;;4.70;;
4704;SDS011;2366;51.332;6.610;2024-03-25T13:04:44;4.50;;;3.92;;
4704;SDS011;2366;51.332;6.610;2024-03-25T13:07:09;6.60;;;4.13;;
4704;SDS011;2366;51.332;6.610;2024-03-25T13:09:35;9.87;;;5.07;;
4704;SDS011;2366;51.332;6.610;2024-03-25T13:12:00;9.43;;;4.03;;
4704;SDS011;2366;51.332;6.610;2024-03-25T13:14:26;11.90;;;5.33;;
4704;SDS011;2366;51.332;6.610;2024-03-25T13:16:52;15.93;;;5.80;;
4704;SDS011;2366;51.332;6.610;2024-03-25T13:19:17;7.63;;;5.27;;
4704;SDS011;2366;51.332;6.610;2024-03-25T13:21:43;10.60;;;4.90;;
4704;SDS011;2366;51.332;6.610;2024-03-25T13:24:09;10.00;;;5.32;;
4704;SDS011;2366;51.332;6.610;2024-03-25T13:26:35;9.47;;;5.23;;
4704;SDS011;2366;51.332;6.610;2024-03-25T13:29:00;9.13;;;4.60;;
4704;SDS011;2366;51.332;6.610;2024-03-25T13:31:25;8.30;;;4.40;;
4704;SDS011;2366;51.332;6.610;2024-03-25T13:33:51;9.07;;;3.97;;
4704;SDS011;2366;51.332;6.610;2024-03-25T13:36:17;12.70;;;4.50;;
4704;SDS011;2366;51.332;6.610;2024-03-25T13:38:43;19.73;;;4.40;;
4704;SDS011;2366;51.332;6.610;2024-03-25T13:41:09;6.30;;;4.27;;
4704;SDS011;2366;51.332;6.610;2024-03-25T13:43:35;9.50;;;4.63;;
4704;SDS011;2366;51.332;6.610;2024-03-25T13:46:07;8.95;;;4.65;;
4704;SDS011;2366;51.332;6.610;2024-03-25T13:48:33;10.10;;;4.50;;
4704;SDS011;2366;51.332;6.610;2024-03-25T13:50:58;8.97;;;4.70;;
4704;SDS011;2366;51.332;6.610;2024-03-25T13:53:24;6.77;;;3.77;;
4704;SDS011;2366;51.332;6.610;2024-03-25T13:55:50;5.85;;;3.40;;
4704;SDS011;2366;51.332;6.610;2024-03-25T13:58:16;10.17;;;4.07;;
4704;SDS011;2366;51.332;6.610;2024-03-25T14:00:41;6.40;;;3.37;;
4704;SDS011;2366;51.332;6.610;2024-03-25T14:03:06;8.70;;;3.60;;
4704;SDS011;2366;51.332;6.610;2024-03-25T14:05:32;8.20;;;3.73;;
4704;SDS011;2366;51.332;6.610;2024-03-25T14:07:58;7.00;;;3.88;;
4704;SDS011;2366;51.332;6.610;2024-03-25T14:10:23;11.33;;;4.20;;
4704;SDS011;2366;51.332;6.610;2024-03-25T14:12:48;6.97;;;3.30;;
4704;SDS011;2366;51.332;6.610;2024-03-25T14:15:14;7.43;;;3.63;;
4704;SDS011;2366;51.332;6.610;2024-03-25T14:17:39;12.60;;;3.93;;
4704;SDS011;2366;51.332;6.610;2024-03-25T14:20:05;8.77;;;3.10;;
4704;SDS011;2366;51.332;6.610;2024-03-25T14:22:32;4.30;;;2.85;;
4704;SDS011;2366;51.332;6.610;2024-03-25T14:24:57;8.18;;;3.60;;
4704;SDS011;2366;51.332;6.610;2024-03-25T14:27:23;5.83;;;2.60;;
4704;SDS011;2366;51.332;6.610;2024-03-25T14:29:49;6.95;;;2.70;;
4704;SDS011;2366;51.332;6.610;2024-03-25T14:32:15;6.15;;;3.33;;
4704;SDS011;2366;51.332;6.610;2024-03-25T14:34:44;10.68;;;3.17;;
4704;SDS011;2366;51.332;6.610;2024-03-25T14:37:09;9.47;;;2.87;;
4704;SDS011;2366;51.332;6.610;2024-03-25T14:39:34;7.40;;;2.70;;
4704;SDS011;2366;51.332;6.610;2024-03-25T14:42:00;6.57;;;2.20;;
4704;SDS011;2366;51.332;6.610;2024-03-25T14:44:25;9.90;;;2.83;;
4704;SDS011;2366;51.332;6.610;2024-03-25T14:46:51;6.83;;;2.40;;
4704;SDS011;2366;51.332;6.610;2024-03-25T14:49:16;6.37;;;2.90;;
4704;SDS011;2366;51.332;6.610;2024-03-25T14:51:41;6.03;;;2.13;;
4704;SDS011;2366;51.332;6.610;2024-03-25T14:54:07;7.53;;;2.27;;
4704;SDS011;2366;51.332;6.610;2024-03-25T14:56:32;5.63;;;2.00;;